»·PEaware :: SKW3196 KORD-KSLC

SKW3196 :: KORD-KSLC

FLIGHT INFORMATION

Flight Status: Arrived
Operator:
SkyWest Airlines
More flights by this operator :: More flights under this callsign
Pilot: Anonymous 11975 (11975)
Aircraft: CANADAIR CL-600 CRJ-700
(CRJ7)
More flights by this aircraft type
Origin: KORD Chicago-O'Hare Intl
United States
Destination: KSLC Salt Lake City Intl
United States
More flights between these airports :: More routes between these airports
Route: NOONY NIGHT NITWT OBH YANKI OCS NORDK6
File this flight plan on PilotEdge
Remarks:
Altitude:
(Current/Filed)
36,000ft
Speed:
(Current/Filed)
443kts
Departed: 12-Jul-22 05:57 PM
Arrived: 12-Jul-22 08:49 PM
Distance/Time
Traveled:
1083nm/2:52
Distance/Time
To Go:
Arrived

Flight Plot

Page will automatically refresh every two minutes.

Flight plan parsing failed; only flown route is shown


Map Options




Map Legend


Flown Route
Filed Route
Departure Airport
Arrival Airport
Navaid (VOR, NDB)
Fix

Horizontal Profiles

Position Reports

Time Latitude Longitude Heading Altitude Ground
Speed
12-Jul-22 17:44 41.973711 -87.902472 313 666ft 0kts
12-Jul-22 17:45 41.973711 -87.902472 313 666ft 0kts
12-Jul-22 17:46 41.973711 -87.902472 313 666ft 0kts
12-Jul-22 17:47 41.973711 -87.902472 313 666ft 0kts
12-Jul-22 17:48 41.973711 -87.902472 313 666ft 0kts
12-Jul-22 17:49 41.973711 -87.902472 313 666ft 0kts
12-Jul-22 17:50 41.973508 -87.902019 209 667ft 1kts
12-Jul-22 17:51 41.973336 -87.902094 178 666ft 0kts
12-Jul-22 17:52 41.973336 -87.902094 178 666ft 0kts
12-Jul-22 17:53 41.971464 -87.902222 134 666ft 14kts
12-Jul-22 17:54 41.970418 -87.897109 90 667ft 17kts
12-Jul-22 17:55 41.969615 -87.890696 179 666ft 18kts
12-Jul-22 17:56 41.968981 -87.918308 268 957ft 162kts
12-Jul-22 17:57 41.966910 -87.984961 269 3456ft 206kts
12-Jul-22 17:58 41.964394 -88.074511 269 5943ft 261kts
12-Jul-22 17:59 41.963242 -88.174777 271 9207ft 276kts
12-Jul-22 18:00 41.961030 -88.286465 270 11273ft 328kts
12-Jul-22 18:01 41.958344 -88.410751 270 14645ft 336kts
12-Jul-22 18:02 41.955279 -88.538090 269 17911ft 345kts
12-Jul-22 18:03 41.952422 -88.668631 270 20567ft 356kts
12-Jul-22 18:04 41.948965 -88.804171 269 23003ft 367kts
12-Jul-22 18:05 41.945346 -88.943014 270 24975ft 378kts
12-Jul-22 18:06 41.942174 -89.086311 269 26716ft 389kts
12-Jul-22 18:07 41.938031 -89.233388 269 28276ft 399kts
12-Jul-22 18:08 41.933570 -89.384120 269 29692ft 409kts
12-Jul-22 18:09 41.928830 -89.537783 269 30737ft 416kts
12-Jul-22 18:10 41.923719 -89.694311 269 31573ft 422kts
12-Jul-22 18:11 41.918410 -89.852156 269 32400ft 424kts
12-Jul-22 18:12 41.913254 -90.008429 269 33257ft 422kts
12-Jul-22 18:13 41.907902 -90.167876 269 34070ft 421kts
12-Jul-22 18:14 41.902004 -90.323951 269 34685ft 419kts
12-Jul-22 18:15 41.895920 -90.480074 269 35205ft 418kts
12-Jul-22 18:20 41.862780 -91.263812 269 36012ft 424kts
12-Jul-22 18:21 41.855330 -91.421982 269 36017ft 425kts
12-Jul-22 18:22 41.847579 -91.580356 269 36013ft 425kts
12-Jul-22 18:23 41.839813 -91.738957 269 36016ft 426kts
12-Jul-22 18:24 41.831704 -91.897102 269 36013ft 426kts
12-Jul-22 18:25 41.821963 -92.055746 268 36009ft 427kts
12-Jul-22 18:27 41.812823 -92.214398 268 36010ft 427kts
12-Jul-22 18:28 41.802692 -92.373147 268 36030ft 427kts
12-Jul-22 18:29 41.792814 -92.532138 269 36052ft 428kts
12-Jul-22 18:30 41.783336 -92.690778 268 36070ft 429kts
12-Jul-22 18:31 41.772991 -92.850093 268 36044ft 429kts
12-Jul-22 18:32 41.762305 -93.009586 268 36052ft 430kts
12-Jul-22 18:33 41.751466 -93.169096 268 36048ft 430kts
12-Jul-22 18:34 41.740373 -93.328795 268 36049ft 430kts
12-Jul-22 18:35 41.730101 -93.488475 269 36059ft 430kts
12-Jul-22 18:36 41.722967 -93.647692 269 36053ft 430kts
12-Jul-22 18:37 41.713982 -93.807737 269 36046ft 431kts
12-Jul-22 18:38 41.705124 -93.967809 269 36051ft 431kts
12-Jul-22 18:39 41.696207 -94.127889 269 36053ft 431kts
12-Jul-22 18:40 41.686542 -94.288087 269 36053ft 432kts
12-Jul-22 18:41 41.676922 -94.447761 269 36059ft 432kts
12-Jul-22 18:42 41.667577 -94.608181 269 36064ft 432kts
12-Jul-22 18:43 41.657526 -94.768705 268 36093ft 433kts
12-Jul-22 18:44 41.647301 -94.929427 268 36108ft 434kts
12-Jul-22 18:45 41.636730 -95.090360 268 36099ft 434kts
12-Jul-22 18:46 41.626413 -95.251487 268 36088ft 435kts
12-Jul-22 18:47 41.615316 -95.412136 268 36087ft 435kts
12-Jul-22 18:48 41.603864 -95.573378 267 36082ft 436kts
12-Jul-22 18:49 41.592372 -95.734772 268 36057ft 436kts
12-Jul-22 18:50 41.581210 -95.896352 268 36052ft 436kts
12-Jul-22 18:51 41.569267 -96.057372 267 36050ft 437kts
12-Jul-22 18:51 41.559022 -96.192301 267 36052ft 438kts
12-Jul-22 18:53 41.544633 -96.380988 267 36055ft 438kts
12-Jul-22 18:54 41.532382 -96.543060 267 36054ft 439kts
12-Jul-22 18:55 41.519281 -96.705228 267 36064ft 439kts
12-Jul-22 18:56 41.506147 -96.867391 266 36068ft 440kts
12-Jul-22 18:56 41.495253 -97.002446 267 36072ft 440kts
12-Jul-22 18:57 41.481832 -97.164768 266 36096ft 441kts
12-Jul-22 18:58 41.467909 -97.327595 266 36094ft 441kts
12-Jul-22 19:00 41.451468 -97.517220 266 36083ft 442kts
12-Jul-22 19:00 41.439924 -97.653054 266 36066ft 444kts
12-Jul-22 19:01 41.425099 -97.816879 265 36084ft 445kts
12-Jul-22 19:02 41.410209 -97.980409 265 36080ft 444kts
12-Jul-22 19:03 41.395076 -98.143760 265 36077ft 444kts
12-Jul-22 19:04 41.379933 -98.306357 265 36078ft 444kts
12-Jul-22 19:05 41.383046 -98.468688 279 36089ft 438kts
12-Jul-22 19:06 41.396423 -98.629788 277 36081ft 439kts
12-Jul-22 19:07 41.407669 -98.791753 277 36083ft 439kts
12-Jul-22 19:08 41.418999 -98.954107 277 36081ft 439kts
12-Jul-22 19:09 41.429870 -99.115582 277 36078ft 439kts
12-Jul-22 19:10 41.440665 -99.277652 277 36072ft 439kts
12-Jul-22 19:11 41.451202 -99.439792 277 36113ft 439kts
12-Jul-22 19:12 41.461540 -99.601787 277 36129ft 438kts
12-Jul-22 19:13 41.471520 -99.763521 277 36131ft 437kts
12-Jul-22 19:14 41.481353 -99.925157 277 36096ft 437kts
12-Jul-22 19:15 41.490871 -100.086068 277 36053ft 436kts
12-Jul-22 19:16 41.500134 -100.247653 277 36048ft 436kts
12-Jul-22 19:17 41.509061 -100.408512 277 36044ft 436kts
12-Jul-22 19:18 41.518913 -100.570417 277 36035ft 436kts
12-Jul-22 19:19 41.526652 -100.731422 277 36028ft 435kts
12-Jul-22 19:20 41.534410 -100.892786 277 36023ft 435kts
12-Jul-22 19:21 41.540949 -101.054170 276 36013ft 434kts
12-Jul-22 19:22 41.547399 -101.215005 276 36011ft 434kts
12-Jul-22 19:23 41.553421 -101.375920 276 36007ft 434kts
12-Jul-22 19:24 41.558896 -101.536890 276 36005ft 434kts
12-Jul-22 19:25 41.565671 -101.697845 275 35997ft 435kts
12-Jul-22 19:26 41.570743 -101.856464 275 35996ft 435kts
12-Jul-22 19:27 41.575910 -102.020579 275 35992ft 436kts
12-Jul-22 19:28 41.580918 -102.180464 275 35981ft 437kts
12-Jul-22 19:29 41.586403 -102.345113 275 35981ft 438kts
12-Jul-22 19:30 41.590897 -102.507401 274 35976ft 439kts
12-Jul-22 19:31 41.595183 -102.670503 274 35982ft 439kts
12-Jul-22 19:32 41.599297 -102.833867 274 35978ft 440kts
12-Jul-22 19:33 41.603498 -102.993280 274 35965ft 440kts
12-Jul-22 19:34 41.607393 -103.160229 274 35951ft 440kts
12-Jul-22 19:35 41.610822 -103.323778 274 35951ft 440kts
12-Jul-22 19:36 41.614005 -103.487326 274 35984ft 440kts
12-Jul-22 19:37 41.617472 -103.650850 274 35997ft 440kts
12-Jul-22 19:38 41.620220 -103.813307 273 35979ft 440kts
12-Jul-22 19:39 41.622673 -103.977537 273 35957ft 440kts
12-Jul-22 19:40 41.625364 -104.141331 273 35963ft 441kts
12-Jul-22 19:41 41.627355 -104.305341 272 35985ft 441kts
12-Jul-22 19:42 41.629115 -104.468559 272 36005ft 442kts
12-Jul-22 19:43 41.631253 -104.634290 272 36007ft 443kts
12-Jul-22 19:44 41.632530 -104.798414 272 36024ft 443kts
12-Jul-22 19:45 41.633540 -104.963376 271 36031ft 444kts
12-Jul-22 19:46 41.634711 -105.128462 272 36026ft 444kts
12-Jul-22 19:47 41.635622 -105.293560 271 36019ft 444kts
12-Jul-22 19:48 41.636150 -105.458126 271 36004ft 444kts
12-Jul-22 19:49 41.636315 -105.623371 271 35994ft 444kts
12-Jul-22 19:50 41.636277 -105.788684 271 35988ft 444kts
12-Jul-22 19:51 41.636378 -105.953617 271 35993ft 445kts
12-Jul-22 19:52 41.635973 -106.119611 271 36003ft 447kts
12-Jul-22 19:53 41.635188 -106.285349 270 36007ft 447kts
12-Jul-22 19:54 41.634068 -106.451782 270 35994ft 448kts
12-Jul-22 19:55 41.632887 -106.618292 270 35984ft 447kts
12-Jul-22 19:56 41.631998 -106.784752 270 35952ft 447kts
12-Jul-22 19:57 41.630198 -106.949785 270 36077ft 447kts
12-Jul-22 19:58 41.628019 -107.117107 270 36154ft 447kts
12-Jul-22 19:59 41.626021 -107.283966 270 36153ft 447kts
12-Jul-22 20:00 41.624125 -107.449681 269 36080ft 447kts
12-Jul-22 20:01 41.621358 -107.616011 269 35972ft 447kts
12-Jul-22 20:02 41.618361 -107.782177 269 35977ft 447kts
12-Jul-22 20:03 41.615699 -107.947156 269 35977ft 448kts
12-Jul-22 20:04 41.612063 -108.114718 268 35980ft 449kts
12-Jul-22 20:05 41.608147 -108.281536 268 35985ft 449kts
12-Jul-22 20:06 41.604519 -108.448604 268 36004ft 450kts
12-Jul-22 20:07 41.600455 -108.615621 268 36009ft 449kts
12-Jul-22 20:08 41.596361 -108.782356 267 36154ft 449kts
12-Jul-22 20:09 41.592250 -108.948359 267 36269ft 448kts
12-Jul-22 20:10 41.596895 -109.114636 276 36272ft 449kts
12-Jul-22 20:11 41.611640 -109.280044 274 36201ft 449kts
12-Jul-22 20:12 41.624365 -109.446878 274 36071ft 450kts
12-Jul-22 20:13 41.636954 -109.613320 274 35986ft 450kts
12-Jul-22 20:14 41.649349 -109.779897 274 35984ft 450kts
12-Jul-22 20:15 41.661829 -109.945851 273 35977ft 449kts
12-Jul-22 20:16 41.673533 -110.112400 273 35978ft 449kts
12-Jul-22 20:17 41.685142 -110.279012 273 35988ft 449kts
12-Jul-22 20:18 41.696674 -110.445093 273 35991ft 450kts
12-Jul-22 20:19 41.708518 -110.611920 273 36002ft 450kts
12-Jul-22 20:20 41.720571 -110.778015 273 35304ft 447kts
12-Jul-22 20:21 41.731516 -110.939916 273 33403ft 435kts
12-Jul-22 20:22 41.742626 -111.102505 273 31417ft 433kts
12-Jul-22 20:23 41.753318 -111.262971 273 29482ft 437kts
12-Jul-22 20:24 41.763979 -111.429371 273 26778ft 456kts
12-Jul-22 20:25 41.774635 -111.598426 274 24188ft 450kts
12-Jul-22 20:26 41.784623 -111.762373 273 21481ft 430kts
12-Jul-22 20:27 41.791117 -111.918261 265 19060ft 413kts
12-Jul-22 20:28 41.713342 -112.011333 190 16597ft 408kts
12-Jul-22 20:29 41.602831 -112.038240 189 15275ft 406kts
12-Jul-22 20:30 41.492624 -112.057101 186 14269ft 397kts
12-Jul-22 20:31 41.384065 -112.044863 175 12759ft 383kts
12-Jul-22 20:32 41.279191 -112.031445 176 11878ft 383kts
12-Jul-22 20:33 41.277167 -112.031226 176 11857ft 384kts
12-Jul-22 20:34 41.277167 -112.031226 176 11857ft 384kts
12-Jul-22 20:35 41.277167 -112.031226 176 11857ft 384kts
12-Jul-22 20:36 41.277167 -112.031226 176 11857ft 384kts
12-Jul-22 20:37 41.277167 -112.031226 176 11857ft 384kts
12-Jul-22 20:38 41.277167 -112.031226 176 11857ft 384kts
12-Jul-22 20:39 41.277167 -112.031226 176 11857ft 384kts
12-Jul-22 20:40 41.228165 -112.025858 176 11321ft 371kts
12-Jul-22 20:41 41.139103 -112.015419 176 10998ft 289kts
12-Jul-22 20:42 41.063061 -112.006444 176 9835ft 256kts
12-Jul-22 20:43 40.996298 -111.999109 175 8512ft 229kts
12-Jul-22 20:44 40.937553 -111.991964 175 6976ft 187kts
12-Jul-22 20:45 40.894180 -111.987102 174 6009ft 137kts
12-Jul-22 20:46 40.856326 -111.982556 174 5407ft 134kts
12-Jul-22 20:47 40.818887 -111.978274 175 4529ft 138kts
12-Jul-22 20:48 40.791954 -111.975536 193 4234ft 19kts
12-Jul-22 20:49 40.791099 -111.977224 354 4235ft 12kts
12-Jul-22 20:50 40.791865 -111.980810 264 4231ft 13kts
12-Jul-22 20:51 40.790793 -111.981443 88 4231ft 0kts
12-Jul-22 20:52 40.790793 -111.981443 88 4231ft 0kts

Navigation Log

Ident Type
Flight plan parsing failed, navigation log unavailable